createdAt,value
2018-12-13T00:02:12.070Z,6.19
2018-12-13T00:04:44.832Z,6.30
2018-12-13T00:07:17.423Z,6.39
2018-12-13T00:09:50.166Z,6.31
2018-12-13T00:12:23.822Z,6.31
2018-12-13T00:14:56.377Z,6.27
2018-12-13T00:17:28.910Z,6.30
2018-12-13T00:20:01.691Z,6.36
2018-12-13T00:22:34.283Z,6.44
2018-12-13T00:25:06.877Z,6.44
2018-12-13T00:27:39.411Z,6.43
2018-12-13T00:30:11.982Z,6.39
2018-12-13T00:32:44.584Z,6.42
2018-12-13T00:35:17.233Z,6.39
2018-12-13T00:37:49.768Z,6.43
2018-12-13T00:40:22.549Z,6.48
2018-12-13T00:42:55.086Z,6.34
2018-12-13T00:45:27.736Z,6.34
2018-12-13T00:48:00.345Z,6.39
2018-12-13T00:50:33.023Z,6.25
2018-12-13T00:53:05.659Z,6.12
2018-12-13T00:55:38.211Z,6.26
2018-12-13T00:58:10.892Z,6.31
2018-12-13T01:00:43.452Z,6.27
2018-12-13T01:03:15.981Z,6.14
2018-12-13T01:05:48.529Z,6.17
2018-12-13T01:08:21.071Z,6.26
2018-12-13T01:10:53.757Z,6.26
2018-12-13T01:13:26.290Z,6.30
2018-12-13T01:15:58.848Z,6.29
2018-12-13T01:18:31.368Z,6.18
2018-12-13T01:21:03.942Z,6.23
2018-12-13T01:23:36.513Z,6.22
2018-12-13T01:26:09.069Z,6.20
2018-12-13T01:28:41.595Z,6.24
2018-12-13T01:31:14.241Z,6.29
2018-12-13T01:33:46.741Z,6.32
2018-12-13T01:36:19.298Z,6.28
2018-12-13T01:38:51.839Z,6.24
2018-12-13T01:41:24.469Z,6.19
2018-12-13T01:43:57.123Z,6.17
2018-12-13T01:46:29.694Z,6.25
2018-12-13T01:49:02.229Z,6.33
2018-12-13T01:51:34.804Z,6.18
2018-12-13T01:54:07.339Z,6.10
2018-12-13T01:56:39.901Z,6.22
2018-12-13T01:59:12.442Z,6.25
2018-12-13T02:01:45.307Z,6.22
2018-12-13T02:04:17.852Z,6.10
2018-12-13T02:06:50.431Z,6.10
2018-12-13T02:09:23.174Z,5.99
2018-12-13T02:11:55.744Z,5.88
2018-12-13T02:14:28.326Z,6.13
2018-12-13T02:17:01.082Z,6.11
2018-12-13T02:19:33.679Z,6.17
2018-12-13T02:22:06.279Z,6.18
2018-12-13T02:24:38.803Z,6.24
2018-12-13T02:27:11.369Z,5.97
2018-12-13T02:29:43.895Z,6.13
2018-12-13T02:32:16.530Z,6.25
2018-12-13T02:34:49.145Z,6.15
2018-12-13T02:37:21.746Z,6.12
2018-12-13T02:39:54.278Z,5.95
2018-12-13T02:42:26.935Z,6.04
2018-12-13T02:44:59.490Z,5.78
2018-12-13T02:47:32.274Z,5.79
2018-12-13T02:50:05.333Z,5.96
2018-12-13T02:52:37.898Z,6.13
2018-12-13T02:55:10.449Z,6.00
2018-12-13T02:57:43.011Z,6.12
2018-12-13T03:00:15.540Z,5.98
2018-12-13T03:02:48.180Z,6.03
2018-12-13T03:05:20.766Z,5.87
2018-12-13T03:07:53.410Z,5.86
2018-12-13T03:10:25.953Z,6.04
2018-12-13T03:12:58.586Z,5.89
2018-12-13T03:15:31.116Z,5.81
2018-12-13T03:18:03.764Z,5.58
2018-12-13T03:20:36.301Z,5.75
2018-12-13T03:23:08.921Z,5.83
2018-12-13T03:25:41.454Z,5.73
2018-12-13T03:28:14.019Z,5.66
2018-12-13T03:30:46.561Z,5.68
2018-12-13T03:33:19.160Z,5.87
2018-12-13T03:35:51.714Z,5.88
2018-12-13T03:38:24.273Z,5.92
2018-12-13T03:40:56.811Z,5.96
2018-12-13T03:43:29.390Z,5.87
2018-12-13T03:46:01.931Z,5.93
2018-12-13T03:48:34.594Z,5.73
2018-12-13T03:51:07.177Z,6.03
2018-12-13T03:53:39.798Z,6.03
2018-12-13T03:56:12.333Z,6.14
2018-12-13T03:58:44.988Z,6.23
2018-12-13T04:01:17.523Z,6.05
2018-12-13T04:03:50.082Z,5.92
2018-12-13T04:06:22.602Z,6.12
2018-12-13T04:08:55.251Z,6.09
2018-12-13T04:11:27.788Z,6.05
2018-12-13T04:14:00.423Z,6.07
2018-12-13T04:16:32.966Z,6.10
2018-12-13T04:19:05.627Z,6.23
2018-12-13T04:21:38.220Z,6.19
2018-12-13T04:24:10.893Z,6.23
2018-12-13T04:26:43.448Z,6.24
2018-12-13T04:29:16.176Z,6.32
2018-12-13T04:31:48.764Z,6.34
2018-12-13T04:34:21.452Z,6.27
2018-12-13T04:36:53.992Z,6.29
2018-12-13T04:39:26.637Z,6.34
2018-12-13T04:41:59.179Z,6.44
2018-12-13T04:44:31.993Z,6.41
2018-12-13T04:47:04.540Z,6.42
2018-12-13T04:49:37.291Z,6.39
2018-12-13T04:52:09.826Z,6.31
2018-12-13T04:54:42.421Z,6.39
2018-12-13T04:57:14.970Z,6.41
2018-12-13T04:59:47.544Z,6.49
2018-12-13T05:02:20.072Z,6.32
2018-12-13T05:04:52.649Z,6.36
2018-12-13T05:07:25.192Z,6.36
2018-12-13T05:09:57.897Z,6.36
2018-12-13T05:12:30.565Z,6.48
2018-12-13T05:15:03.146Z,6.26
2018-12-13T05:17:35.692Z,6.27
2018-12-13T05:20:08.326Z,6.13
2018-12-13T05:22:42.602Z,6.14
2018-12-13T05:25:15.261Z,6.16
2018-12-13T05:27:47.810Z,6.20
2018-12-13T05:30:20.360Z,6.19
2018-12-13T05:32:52.887Z,6.03
2018-12-13T05:35:25.451Z,6.15
2018-12-13T05:37:57.983Z,6.17
2018-12-13T05:40:30.547Z,6.02
2018-12-13T05:43:03.120Z,6.00
2018-12-13T05:45:35.708Z,5.88
2018-12-13T05:48:08.269Z,5.85
2018-12-13T05:50:40.966Z,5.84
2018-12-13T05:53:13.498Z,5.64
2018-12-13T05:55:46.070Z,5.73
2018-12-13T05:58:18.698Z,5.60
2018-12-13T06:00:51.345Z,5.68
2018-12-13T06:03:23.959Z,5.62
2018-12-13T06:05:56.593Z,5.45
2018-12-13T06:08:29.117Z,5.56
2018-12-13T06:11:01.768Z,5.63
2018-12-13T06:13:34.290Z,5.50
2018-12-13T06:16:06.922Z,5.46
2018-12-13T06:18:39.455Z,5.55
2018-12-13T06:21:12.095Z,5.68
2018-12-13T06:23:44.649Z,5.69
2018-12-13T06:26:17.349Z,5.77
2018-12-13T06:28:49.875Z,5.57
2018-12-13T06:31:22.520Z,5.72
2018-12-13T06:33:55.114Z,5.79
2018-12-13T06:36:27.670Z,5.72
2018-12-13T06:39:00.198Z,5.68
2018-12-13T06:41:32.951Z,5.73
2018-12-13T06:44:05.472Z,5.87
2018-12-13T06:46:38.118Z,5.82
2018-12-13T06:49:10.668Z,5.97
2018-12-13T06:51:43.262Z,5.40
2018-12-13T06:54:15.929Z,5.66
2018-12-13T06:56:48.506Z,5.82
2018-12-13T06:59:21.040Z,5.80
2018-12-13T07:01:53.813Z,5.74
2018-12-13T07:04:26.444Z,5.72
2018-12-13T07:06:59.149Z,5.71
2018-12-13T07:09:31.694Z,5.89
2018-12-13T07:12:04.260Z,5.91
2018-12-13T07:14:36.764Z,5.92
2018-12-13T07:17:09.425Z,5.90
2018-12-13T07:19:41.950Z,6.10
2018-12-13T07:22:14.519Z,5.86
2018-12-13T07:24:47.064Z,5.84
2018-12-13T07:27:19.725Z,5.90
2018-12-13T07:29:52.271Z,5.84
2018-12-13T07:32:24.848Z,5.82
2018-12-13T07:35:01.280Z,5.46
2018-12-13T07:37:32.007Z,5.44
2018-12-13T07:40:06.664Z,5.52
2018-12-13T07:42:39.410Z,5.63
2018-12-13T07:45:12.255Z,5.63
2018-12-13T07:47:44.962Z,5.62
2018-12-13T07:50:17.510Z,5.55
2018-12-13T07:52:50.247Z,5.65
2018-12-13T07:55:22.785Z,5.66
2018-12-13T07:57:55.368Z,5.64
2018-12-13T08:00:27.919Z,5.79
2018-12-13T08:03:00.472Z,5.67
2018-12-13T08:05:33.037Z,5.81
2018-12-13T08:08:06.026Z,5.45
2018-12-13T08:10:38.607Z,5.68
2018-12-13T08:13:11.425Z,5.21
2018-12-13T08:15:44.110Z,5.41
2018-12-13T08:18:16.776Z,5.54
2018-12-13T08:20:49.302Z,5.71
2018-12-13T08:23:21.958Z,5.66
2018-12-13T08:25:54.502Z,5.71
2018-12-13T08:28:27.089Z,5.68
2018-12-13T08:30:59.632Z,5.73
2018-12-13T08:33:32.200Z,5.56
2018-12-13T08:36:04.896Z,5.78
2018-12-13T08:38:37.582Z,5.94
2018-12-13T08:41:10.120Z,6.00
2018-12-13T08:43:42.776Z,5.99
2018-12-13T08:46:15.319Z,6.10
2018-12-13T08:48:47.872Z,5.88
2018-12-13T08:51:20.429Z,5.82
2018-12-13T08:53:53.058Z,5.95
2018-12-13T08:56:25.620Z,5.83
2018-12-13T08:58:58.277Z,5.92
2018-12-13T09:01:30.823Z,6.01
2018-12-13T09:04:03.395Z,5.87
2018-12-13T09:06:35.956Z,5.88
2018-12-13T09:09:08.591Z,5.99
2018-12-13T09:11:41.161Z,5.88
2018-12-13T09:14:13.809Z,6.06
2018-12-13T09:16:46.368Z,5.79
2018-12-13T09:19:18.947Z,5.96
2018-12-13T09:21:51.540Z,5.70
2018-12-13T09:24:24.137Z,5.61
2018-12-13T09:26:56.729Z,5.79
2018-12-13T09:29:29.339Z,5.82
2018-12-13T09:32:01.889Z,5.47
2018-12-13T09:34:34.479Z,5.87
2018-12-13T09:37:07.127Z,6.01
2018-12-13T09:39:39.694Z,6.13
2018-12-13T09:42:12.240Z,6.24
2018-12-13T09:44:44.877Z,5.96
2018-12-13T09:47:17.423Z,6.11
2018-12-13T09:49:49.987Z,6.21
2018-12-13T09:52:22.544Z,6.15
2018-12-13T09:54:55.100Z,6.30
2018-12-13T09:57:31.015Z,6.20
2018-12-13T10:00:06.284Z,6.28
2018-12-13T10:02:38.820Z,6.38
2018-12-13T10:05:11.394Z,6.37
2018-12-13T10:07:45.016Z,6.60
2018-12-13T10:10:17.860Z,6.54
2018-12-13T10:12:50.430Z,6.41
2018-12-13T10:15:23.080Z,6.56
2018-12-13T10:17:55.653Z,6.59
2018-12-13T10:20:28.213Z,6.56
2018-12-13T10:23:00.748Z,6.46
2018-12-13T10:25:33.469Z,6.58
2018-12-13T10:28:06.021Z,6.61
2018-12-13T10:30:38.667Z,6.61
2018-12-13T10:33:11.220Z,6.65
2018-12-13T10:35:43.806Z,6.78
2018-12-13T10:38:16.324Z,6.92
2018-12-13T10:40:49.893Z,6.99
2018-12-13T10:43:22.433Z,6.99
2018-12-13T10:45:55.018Z,6.63
2018-12-13T10:48:27.619Z,6.57
2018-12-13T10:51:00.183Z,6.57
2018-12-13T10:53:32.719Z,6.67
2018-12-13T10:56:05.533Z,6.74
2018-12-13T10:58:38.077Z,6.62
2018-12-13T11:01:16.139Z,6.52
2018-12-13T11:03:48.712Z,6.26
2018-12-13T11:06:21.309Z,6.33
2018-12-13T11:08:59.217Z,6.51
2018-12-13T11:11:28.602Z,6.62
2018-12-13T11:14:01.229Z,6.80
2018-12-13T11:16:33.870Z,6.30
2018-12-13T11:19:06.547Z,6.35
2018-12-13T11:21:39.112Z,6.53
2018-12-13T11:24:11.674Z,6.52
2018-12-13T11:26:44.359Z,6.54
2018-12-13T11:29:28.776Z,6.64
2018-12-13T11:32:01.364Z,6.61
2018-12-13T11:34:33.908Z,6.42
2018-12-13T11:37:06.510Z,6.52
2018-12-13T11:39:39.047Z,6.53
2018-12-13T11:42:11.641Z,6.56
2018-12-13T11:44:44.370Z,6.35
2018-12-13T11:47:17.299Z,6.37
2018-12-13T11:49:50.043Z,6.49
2018-12-13T11:52:22.733Z,6.41
2018-12-13T11:54:56.226Z,6.30
2018-12-13T11:57:28.908Z,6.30
2018-12-13T12:00:01.475Z,6.33
2018-12-13T12:02:34.163Z,6.50
2018-12-13T12:05:06.723Z,6.45
2018-12-13T12:07:39.332Z,6.57
2018-12-13T12:10:11.991Z,6.66
2018-12-13T12:12:44.551Z,6.72
2018-12-13T12:15:17.252Z,6.77
2018-12-13T12:17:50.128Z,6.79
2018-12-13T12:20:22.674Z,6.79
2018-12-13T12:22:55.321Z,6.67
2018-12-13T12:25:27.866Z,6.51
2018-12-13T12:28:00.422Z,6.52
2018-12-13T12:30:32.961Z,6.64
2018-12-13T12:33:05.682Z,6.68
2018-12-13T12:35:38.216Z,6.59
2018-12-13T12:38:10.769Z,6.65
2018-12-13T12:40:43.300Z,6.48
2018-12-13T12:43:15.982Z,6.34
2018-12-13T12:45:48.584Z,6.47
2018-12-13T12:48:21.133Z,6.60
2018-12-13T12:50:53.674Z,6.62
2018-12-13T12:53:26.251Z,6.63
2018-12-13T12:55:58.895Z,6.62
2018-12-13T12:58:31.447Z,6.46
2018-12-13T13:01:04.022Z,6.48
2018-12-13T13:03:36.801Z,6.41
2018-12-13T13:06:09.356Z,6.48
2018-12-13T13:08:42.008Z,6.49
2018-12-13T13:11:14.645Z,6.50
2018-12-13T13:13:47.436Z,6.49
2018-12-13T13:16:19.987Z,6.53
2018-12-13T13:18:52.672Z,6.49
2018-12-13T13:21:25.219Z,6.37
2018-12-13T13:23:57.945Z,6.39
2018-12-13T13:26:30.549Z,6.40
2018-12-13T13:29:03.344Z,6.29
2018-12-13T13:31:35.871Z,6.15
2018-12-13T13:34:08.570Z,6.24
2018-12-13T13:36:41.101Z,6.23
2018-12-13T13:39:13.672Z,6.20
2018-12-13T13:41:46.205Z,6.20
2018-12-13T13:44:19.399Z,6.26
2018-12-13T13:46:52.871Z,6.07
2018-12-13T13:49:25.550Z,6.19
2018-12-13T13:51:58.097Z,6.28
2018-12-13T13:54:30.673Z,6.01
2018-12-13T13:57:03.631Z,6.15
2018-12-13T13:59:36.303Z,6.03
2018-12-13T14:02:08.873Z,5.96
2018-12-13T14:04:41.446Z,6.00
2018-12-13T14:07:13.988Z,5.98
2018-12-13T14:09:46.584Z,6.02
2018-12-13T14:12:19.156Z,5.90
2018-12-13T14:14:51.713Z,5.91
2018-12-13T14:17:24.252Z,5.80
2018-12-13T14:19:56.858Z,5.84
2018-12-13T14:22:29.384Z,5.95
2018-12-13T14:25:01.992Z,6.02
2018-12-13T14:27:34.561Z,5.98
2018-12-13T14:30:07.415Z,5.94
2018-12-13T14:32:39.947Z,6.06
2018-12-13T14:35:12.503Z,6.07
2018-12-13T14:37:45.056Z,6.03
2018-12-13T14:40:17.696Z,6.08
2018-12-13T14:42:50.225Z,5.82
2018-12-13T14:45:22.788Z,5.97
2018-12-13T14:47:55.325Z,5.93
2018-12-13T14:50:28.001Z,5.91
2018-12-13T14:53:00.522Z,5.88
2018-12-13T14:55:33.427Z,5.78
2018-12-13T14:58:05.981Z,5.75
2018-12-13T15:00:38.630Z,5.65
2018-12-13T15:03:11.167Z,5.95
2018-12-13T15:05:43.821Z,5.76
2018-12-13T15:08:16.362Z,5.87
2018-12-13T15:10:48.943Z,5.69
2018-12-13T15:13:21.471Z,5.89
2018-12-13T15:15:54.118Z,5.48
2018-12-13T15:18:26.649Z,5.73
2018-12-13T15:20:59.196Z,5.89
2018-12-13T15:23:31.739Z,5.85
2018-12-13T15:26:04.306Z,5.93
2018-12-13T15:28:36.878Z,5.90
2018-12-13T15:31:09.501Z,5.84
2018-12-13T15:33:42.043Z,5.93
2018-12-13T15:36:14.685Z,5.83
2018-12-13T15:38:47.225Z,5.87
2018-12-13T15:41:19.839Z,5.53
2018-12-13T15:43:52.374Z,5.68
2018-12-13T15:46:25.120Z,5.69
2018-12-13T15:48:57.663Z,5.56
2018-12-13T15:51:30.256Z,5.62
2018-12-13T15:54:02.804Z,5.42
2018-12-13T15:56:35.480Z,5.69
2018-12-13T15:59:08.048Z,5.78
2018-12-13T16:01:40.708Z,5.91
2018-12-13T16:04:13.238Z,5.68
2018-12-13T16:06:45.836Z,5.87
2018-12-13T16:09:18.426Z,5.92
2018-12-13T16:11:51.014Z,5.96
2018-12-13T16:14:23.544Z,5.97
2018-12-13T16:16:57.528Z,6.02
2018-12-13T16:19:30.278Z,6.14
2018-12-13T16:22:02.850Z,6.17
2018-12-13T16:24:35.452Z,6.16
2018-12-13T16:27:08.437Z,6.20
2018-12-13T16:29:40.984Z,6.12
2018-12-13T16:32:13.629Z,6.14
2018-12-13T16:34:46.148Z,6.20
2018-12-13T16:37:18.795Z,6.27
2018-12-13T16:39:51.334Z,6.29
2018-12-13T16:42:23.907Z,6.31
2018-12-13T16:44:56.805Z,6.37
2018-12-13T16:47:29.513Z,6.42
2018-12-13T16:50:02.091Z,6.47
2018-12-13T16:52:34.715Z,6.33
2018-12-13T16:55:07.224Z,6.28
2018-12-13T16:57:39.870Z,6.33
2018-12-13T17:00:12.529Z,6.33
2018-12-13T17:02:45.100Z,6.36
2018-12-13T17:05:17.635Z,6.38
2018-12-13T17:07:50.191Z,6.37
2018-12-13T17:10:22.736Z,6.36
2018-12-13T17:12:55.285Z,6.38
2018-12-13T17:15:27.843Z,6.44
2018-12-13T17:18:00.396Z,6.34
2018-12-13T17:20:32.974Z,6.36
2018-12-13T17:23:05.538Z,6.36
2018-12-13T17:25:38.164Z,6.26
2018-12-13T17:28:10.819Z,6.33
2018-12-13T17:30:43.371Z,6.39
2018-12-13T17:33:16.019Z,6.38
2018-12-13T17:35:48.573Z,6.42
2018-12-13T17:38:22.573Z,6.51
2018-12-13T17:40:55.376Z,6.54
2018-12-13T17:43:27.957Z,6.51
2018-12-13T17:46:00.502Z,6.39
2018-12-13T17:48:33.077Z,6.31
2018-12-13T17:51:05.645Z,6.14
2018-12-13T17:53:38.212Z,6.14
2018-12-13T17:56:10.759Z,6.24
2018-12-13T17:58:43.332Z,6.34
2018-12-13T18:01:15.873Z,6.30
2018-12-13T18:03:48.530Z,6.33
2018-12-13T18:06:21.073Z,6.35
2018-12-13T18:08:53.638Z,6.30
2018-12-13T18:11:26.170Z,6.30
2018-12-13T18:13:58.751Z,6.39
2018-12-13T18:16:31.309Z,6.30
2018-12-13T18:19:03.925Z,6.24
2018-12-13T18:21:36.576Z,6.28
2018-12-13T18:24:09.237Z,6.30
2018-12-13T18:26:41.859Z,6.12
2018-12-13T18:29:14.427Z,6.07
2018-12-13T18:31:46.957Z,6.20
2018-12-13T18:34:19.522Z,6.20
2018-12-13T18:36:52.135Z,6.16
2018-12-13T18:39:24.790Z,6.14
2018-12-13T18:41:57.439Z,6.23
2018-12-13T18:44:30.007Z,6.19
2018-12-13T18:47:02.564Z,6.23
2018-12-13T18:49:35.374Z,6.18
2018-12-13T18:52:08.819Z,6.20
2018-12-13T18:54:41.546Z,6.07
2018-12-13T18:57:14.074Z,6.06
2018-12-13T18:59:46.641Z,6.03
2018-12-13T19:02:19.178Z,6.10
2018-12-13T19:04:51.777Z,6.11
2018-12-13T19:07:24.336Z,6.11
2018-12-13T19:09:56.888Z,6.05
2018-12-13T19:12:29.423Z,5.90
2018-12-13T19:15:02.029Z,5.94
2018-12-13T19:17:34.573Z,5.91
2018-12-13T19:20:07.327Z,5.87
2018-12-13T19:22:39.931Z,5.89
2018-12-13T19:25:12.483Z,5.86
2018-12-13T19:27:45.020Z,5.88
2018-12-13T19:30:17.689Z,5.82
2018-12-13T19:32:50.255Z,5.61
2018-12-13T19:35:22.829Z,5.37
2018-12-13T19:37:55.372Z,5.54
2018-12-13T19:40:28.028Z,5.48
2018-12-13T19:43:00.548Z,5.48
2018-12-13T19:45:33.532Z,5.53
2018-12-13T19:48:06.283Z,5.52
2018-12-13T19:50:39.302Z,5.38
2018-12-13T19:53:12.166Z,5.33
2018-12-13T19:55:44.735Z,5.36
2018-12-13T19:58:17.332Z,5.29
2018-12-13T20:00:49.895Z,5.16
2018-12-13T20:03:22.427Z,5.10
2018-12-13T20:05:55.084Z,5.12
2018-12-13T20:08:27.618Z,5.05
2018-12-13T20:11:00.202Z,5.06
2018-12-13T20:13:32.748Z,5.05
2018-12-13T20:16:05.557Z,4.89
2018-12-13T20:18:38.136Z,4.95
2018-12-13T20:21:10.737Z,4.82
2018-12-13T20:23:43.273Z,4.85
2018-12-13T20:26:15.854Z,4.82
2018-12-13T20:28:48.396Z,4.87
2018-12-13T20:31:20.977Z,4.86
2018-12-13T20:33:53.568Z,4.82
2018-12-13T20:36:26.287Z,4.71
2018-12-13T20:38:58.922Z,4.67
2018-12-13T20:41:31.627Z,4.65
2018-12-13T20:44:04.294Z,4.63
2018-12-13T20:46:37.090Z,4.50
2018-12-13T20:49:09.642Z,4.40
2018-12-13T20:51:42.207Z,4.45
2018-12-13T20:54:14.813Z,4.42
2018-12-13T20:56:47.410Z,4.36
2018-12-13T20:59:20.019Z,4.30
2018-12-13T21:01:52.738Z,4.31
2018-12-13T21:04:25.266Z,4.27
2018-12-13T21:07:03.503Z,4.14
2018-12-13T21:09:36.092Z,4.06
2018-12-13T21:12:08.845Z,4.05
2018-12-13T21:14:41.526Z,3.96
2018-12-13T21:17:14.105Z,3.97
2018-12-13T21:19:46.642Z,4.01
2018-12-13T21:22:19.203Z,4.07
2018-12-13T21:24:51.756Z,4.07
2018-12-13T21:27:24.426Z,4.08
2018-12-13T21:29:56.954Z,4.08
2018-12-13T21:32:29.515Z,4.08
2018-12-13T21:35:02.217Z,4.10
2018-12-13T21:37:34.795Z,4.13
2018-12-13T21:40:09.619Z,4.17
2018-12-13T21:42:43.212Z,4.22
2018-12-13T21:45:15.754Z,4.24
2018-12-13T21:47:48.327Z,4.29
2018-12-13T21:50:20.876Z,4.28
2018-12-13T21:52:53.522Z,4.25
2018-12-13T21:55:26.059Z,4.36
2018-12-13T21:57:58.645Z,4.40
2018-12-13T22:00:31.186Z,4.43
2018-12-13T22:03:03.843Z,4.46
2018-12-13T22:05:36.380Z,4.37
2018-12-13T22:08:08.937Z,4.40
2018-12-13T22:10:41.507Z,4.40
2018-12-13T22:13:14.179Z,4.43
2018-12-13T22:15:46.714Z,4.53
2018-12-13T22:18:19.301Z,4.57
2018-12-13T22:20:51.844Z,4.56
2018-12-13T22:23:24.440Z,4.62
2018-12-13T22:25:57.138Z,4.58
2018-12-13T22:28:29.720Z,4.62
2018-12-13T22:31:02.256Z,4.65
2018-12-13T22:33:34.901Z,4.64
2018-12-13T22:36:07.448Z,4.71
2018-12-13T22:38:40.104Z,4.72
2018-12-13T22:41:12.705Z,4.44
2018-12-13T22:43:45.415Z,4.61
2018-12-13T22:46:17.969Z,4.74
2018-12-13T22:48:50.542Z,4.71
2018-12-13T22:51:23.092Z,4.67
2018-12-13T22:53:55.676Z,4.58
2018-12-13T22:56:28.227Z,4.74
2018-12-13T22:59:00.903Z,4.83
2018-12-13T23:01:33.477Z,4.88
2018-12-13T23:04:06.100Z,4.90
2018-12-13T23:06:38.630Z,4.85
2018-12-13T23:09:11.288Z,4.81
2018-12-13T23:11:43.834Z,4.78
2018-12-13T23:14:16.425Z,4.85
2018-12-13T23:16:49.011Z,4.89
2018-12-13T23:19:21.804Z,4.93
2018-12-13T23:21:54.370Z,4.95
2018-12-13T23:24:27.042Z,4.94
2018-12-13T23:27:00.468Z,4.93
2018-12-13T23:29:33.275Z,4.99
2018-12-13T23:32:05.812Z,5.01
2018-12-13T23:34:38.382Z,5.03
2018-12-13T23:37:11.310Z,4.99
2018-12-13T23:39:43.959Z,5.03
2018-12-13T23:42:16.722Z,5.01
2018-12-13T23:44:49.363Z,5.03
2018-12-13T23:47:21.923Z,5.06
2018-12-13T23:49:54.868Z,5.06
2018-12-13T23:52:27.450Z,5.06
2018-12-13T23:55:00.059Z,5.00
2018-12-13T23:57:32.794Z,4.95
